createdAt,value
2023-05-03T00:01:41.494Z,4.30
2023-05-03T00:04:08.752Z,4.30
2023-05-03T00:06:35.684Z,4.30
2023-05-03T00:09:02.634Z,4.30
2023-05-03T00:11:29.556Z,4.30
2023-05-03T00:13:56.464Z,4.30
2023-05-03T00:16:23.382Z,4.30
2023-05-03T00:18:50.403Z,4.20
2023-05-03T00:21:17.363Z,4.10
2023-05-03T00:23:44.220Z,4.10
2023-05-03T00:26:11.065Z,4.10
2023-05-03T00:28:37.892Z,4.10
2023-05-03T00:31:09.612Z,4.10
2023-05-03T00:33:37.959Z,4.10
2023-05-03T00:36:12.462Z,4.20
2023-05-03T00:38:40.389Z,4.20
2023-05-03T00:41:07.810Z,4.10
2023-05-03T00:43:35.419Z,4.10
2023-05-03T00:46:15.198Z,4.00
2023-05-03T00:48:43.501Z,4.00
2023-05-03T00:51:14.353Z,4.00
2023-05-03T00:53:42.706Z,4.00
2023-05-03T00:56:10.127Z,4.00
2023-05-03T00:58:40.207Z,3.90
2023-05-03T01:01:07.958Z,3.90
2023-05-03T01:03:37.946Z,3.90
2023-05-03T01:06:17.015Z,3.90
2023-05-03T01:09:03.629Z,3.90
2023-05-03T01:12:07.834Z,3.90
2023-05-03T01:15:00.093Z,3.90
2023-05-03T01:17:43.838Z,3.90
2023-05-03T01:20:14.432Z,3.80
2023-05-03T01:22:56.383Z,3.80
2023-05-03T01:25:23.185Z,3.80
2023-05-03T01:27:50.695Z,3.80
2023-05-03T01:30:17.684Z,3.70
2023-05-03T01:32:44.539Z,3.70
2023-05-03T01:35:37.385Z,3.70
2023-05-03T01:38:05.048Z,3.60
2023-05-03T01:40:36.319Z,3.60
2023-05-03T01:43:04.929Z,3.60
2023-05-03T01:45:31.811Z,3.60
2023-05-03T01:47:59.414Z,3.50
2023-05-03T01:50:26.459Z,3.50
2023-05-03T01:52:53.482Z,3.50
2023-05-03T01:55:20.361Z,3.40
2023-05-03T01:57:47.261Z,3.40
2023-05-03T02:00:14.583Z,3.40
2023-05-03T02:02:41.446Z,3.50
2023-05-03T02:05:10.163Z,3.50
2023-05-03T02:07:37.216Z,3.50
2023-05-03T02:10:06.185Z,3.50
2023-05-03T02:12:33.255Z,3.50
2023-05-03T02:15:00.694Z,3.50
2023-05-03T02:17:27.633Z,3.50
2023-05-03T02:19:54.549Z,3.50
2023-05-03T02:22:21.505Z,3.50
2023-05-03T02:24:49.004Z,3.40
2023-05-03T02:27:15.979Z,3.40
2023-05-03T02:29:43.006Z,3.40
2023-05-03T02:32:10.021Z,3.30
2023-05-03T02:34:36.887Z,3.30
2023-05-03T02:37:04.326Z,3.30
2023-05-03T02:39:31.442Z,3.30
2023-05-03T02:41:58.506Z,3.20
2023-05-03T02:44:25.353Z,3.20
2023-05-03T02:46:54.682Z,3.20
2023-05-03T02:49:21.998Z,3.20
2023-05-03T02:51:48.952Z,3.20
2023-05-03T02:54:15.797Z,3.20
2023-05-03T02:56:42.595Z,3.20
2023-05-03T02:59:09.551Z,3.20
2023-05-03T03:01:36.414Z,3.10
2023-05-03T03:04:03.655Z,3.10
2023-05-03T03:06:31.429Z,3.00
2023-05-03T03:08:58.379Z,3.00
2023-05-03T03:11:25.535Z,2.90
2023-05-03T03:13:52.404Z,2.90
2023-05-03T03:16:19.258Z,2.90
2023-05-03T03:18:46.221Z,2.80
2023-05-03T03:21:13.082Z,2.80
2023-05-03T03:23:40.007Z,2.80
2023-05-03T03:26:06.988Z,2.80
2023-05-03T03:28:33.947Z,2.80
2023-05-03T03:31:01.347Z,2.80
2023-05-03T03:33:28.337Z,2.90
2023-05-03T03:35:55.281Z,2.90
2023-05-03T03:38:22.153Z,2.80
2023-05-03T03:40:49.112Z,2.80
2023-05-03T03:43:15.929Z,2.80
2023-05-03T03:45:43.226Z,2.90
2023-05-03T03:48:10.095Z,2.90
2023-05-03T03:50:37.838Z,2.90
2023-05-03T03:53:04.896Z,2.90
2023-05-03T03:55:31.825Z,2.90
2023-05-03T03:57:58.791Z,2.90
2023-05-03T04:00:25.834Z,2.90
2023-05-03T04:02:52.784Z,2.90
2023-05-03T04:05:19.905Z,2.90
2023-05-03T04:07:46.752Z,2.90
2023-05-03T04:10:13.637Z,2.90
2023-05-03T04:12:40.477Z,2.90
2023-05-03T04:15:08.135Z,3.00
2023-05-03T04:17:35.304Z,3.00
2023-05-03T04:20:11.210Z,3.10
2023-05-03T04:22:39.894Z,3.00
2023-05-03T04:25:08.815Z,3.10
2023-05-03T04:27:35.833Z,3.10
2023-05-03T04:30:03.909Z,3.10
2023-05-03T04:32:37.452Z,3.10
2023-05-03T04:35:09.544Z,3.10
2023-05-03T04:37:40.880Z,3.20
2023-05-03T04:40:09.675Z,3.20
2023-05-03T04:42:36.962Z,3.20
2023-05-03T04:45:06.786Z,3.40
2023-05-03T04:47:34.096Z,3.40
2023-05-03T04:50:02.339Z,3.50
2023-05-03T04:52:29.633Z,3.50
2023-05-03T04:54:56.726Z,3.50
2023-05-03T04:57:23.638Z,3.60
2023-05-03T04:59:50.762Z,3.60
2023-05-03T05:02:17.942Z,3.70
2023-05-03T05:04:44.747Z,3.70
2023-05-03T05:07:13.056Z,3.80
2023-05-03T05:09:40.364Z,4.00
2023-05-03T05:12:07.733Z,4.00
2023-05-03T05:14:34.622Z,4.10
2023-05-03T05:17:01.587Z,4.20
2023-05-03T05:19:31.364Z,4.30
2023-05-03T05:21:58.183Z,4.40
2023-05-03T05:24:25.092Z,4.40
2023-05-03T05:26:51.999Z,4.50
2023-05-03T05:29:19.049Z,4.50
2023-05-03T05:31:45.975Z,4.60
2023-05-03T05:34:12.908Z,4.70
2023-05-03T05:36:39.795Z,4.70
2023-05-03T05:39:06.727Z,4.90
2023-05-03T05:41:33.827Z,5.00
2023-05-03T05:44:00.856Z,5.10
2023-05-03T05:46:27.779Z,5.20
2023-05-03T05:48:54.757Z,5.30
2023-05-03T05:51:21.727Z,5.40
2023-05-03T05:53:48.643Z,5.90
2023-05-03T05:56:16.223Z,6.90
2023-05-03T05:58:43.243Z,7.90
2023-05-03T06:01:10.726Z,8.90
2023-05-03T06:03:37.689Z,9.60
2023-05-03T06:06:04.720Z,9.80
2023-05-03T06:08:31.948Z,9.40
2023-05-03T06:10:58.873Z,9.00
2023-05-03T06:13:25.735Z,8.90
2023-05-03T06:15:52.612Z,9.10
2023-05-03T06:18:19.664Z,9.30
2023-05-03T06:20:50.420Z,9.60
2023-05-03T06:23:17.642Z,10.30
2023-05-03T06:25:47.343Z,11.20
2023-05-03T06:28:14.309Z,12.00
2023-05-03T06:30:41.232Z,12.70
2023-05-03T06:33:08.357Z,13.30
2023-05-03T06:35:35.709Z,13.80
2023-05-03T06:38:02.580Z,14.20
2023-05-03T06:40:29.502Z,14.20
2023-05-03T06:42:56.372Z,14.40
2023-05-03T06:45:23.300Z,14.50
2023-05-03T06:47:50.505Z,14.60
2023-05-03T06:50:20.092Z,14.30
2023-05-03T06:52:47.144Z,14.90
2023-05-03T06:55:14.016Z,15.30
2023-05-03T06:57:42.780Z,15.40
2023-05-03T07:00:11.220Z,15.10
2023-05-03T07:02:38.406Z,15.30
2023-05-03T07:05:05.791Z,15.40
2023-05-03T07:07:33.580Z,15.10
2023-05-03T07:10:00.524Z,14.70
2023-05-03T07:12:28.567Z,14.60
2023-05-03T07:14:56.069Z,14.10
2023-05-03T07:17:23.290Z,13.60
2023-05-03T07:19:53.440Z,13.20
2023-05-03T07:22:25.333Z,12.90
2023-05-03T07:24:54.745Z,12.40
2023-05-03T07:27:22.065Z,12.10
2023-05-03T07:29:49.002Z,12.40
2023-05-03T07:32:16.656Z,12.30
2023-05-03T07:34:46.287Z,12.30
2023-05-03T07:37:13.152Z,12.40
2023-05-03T07:39:41.393Z,13.00
2023-05-03T07:42:08.612Z,13.60
2023-05-03T07:44:35.544Z,14.60
2023-05-03T07:47:02.429Z,14.50
2023-05-03T07:49:29.255Z,13.80
2023-05-03T07:51:56.253Z,13.50
2023-05-03T07:54:23.119Z,13.20
2023-05-03T07:56:49.961Z,13.10
2023-05-03T07:59:16.797Z,13.30
2023-05-03T08:01:43.680Z,13.10
2023-05-03T08:04:10.819Z,12.80
2023-05-03T08:06:38.891Z,12.50
2023-05-03T08:09:05.992Z,12.00
2023-05-03T08:11:33.084Z,11.70
2023-05-03T08:14:00.114Z,11.50
2023-05-03T08:16:27.320Z,11.40
2023-05-03T08:18:54.285Z,11.40
2023-05-03T08:21:22.093Z,11.40
2023-05-03T08:23:49.005Z,11.40
2023-05-03T08:26:15.956Z,11.50
2023-05-03T08:28:43.037Z,11.60
2023-05-03T08:31:10.056Z,11.80
2023-05-03T08:33:37.575Z,12.60
2023-05-03T08:36:04.836Z,13.50
2023-05-03T08:38:32.665Z,13.80
2023-05-03T08:41:09.734Z,13.50
2023-05-03T08:43:44.149Z,13.20
2023-05-03T08:46:14.614Z,12.80
2023-05-03T08:48:43.228Z,12.80
2023-05-03T08:51:11.169Z,12.70
2023-05-03T08:53:38.123Z,12.60
2023-05-03T08:56:09.687Z,12.50
2023-05-03T08:58:37.714Z,12.30
2023-05-03T09:01:09.046Z,12.10
2023-05-03T09:03:37.264Z,11.90
2023-05-03T09:06:19.969Z,11.90
2023-05-03T09:08:46.883Z,11.90
2023-05-03T09:11:27.632Z,11.90
2023-05-03T09:14:07.435Z,12.10
2023-05-03T09:16:34.458Z,12.20
2023-05-03T09:19:03.412Z,12.00
2023-05-03T09:21:33.696Z,12.30
2023-05-03T09:24:01.727Z,12.40
2023-05-03T09:26:30.359Z,12.30
2023-05-03T09:29:04.509Z,12.40
2023-05-03T09:31:33.152Z,12.40
2023-05-03T09:34:00.824Z,12.60
2023-05-03T09:36:28.352Z,12.70
2023-05-03T09:38:56.111Z,12.90
2023-05-03T09:41:31.492Z,13.00
2023-05-03T09:44:02.923Z,13.00
2023-05-03T09:46:33.292Z,13.30
2023-05-03T09:49:00.446Z,13.30
2023-05-03T09:51:29.334Z,13.30
2023-05-03T09:53:56.974Z,13.50
2023-05-03T09:56:28.939Z,13.70
2023-05-03T09:58:55.899Z,14.10
2023-05-03T10:01:25.219Z,14.40
2023-05-03T10:03:54.413Z,14.60
2023-05-03T10:06:25.556Z,14.30
2023-05-03T10:09:14.433Z,14.00
2023-05-03T10:11:48.136Z,14.00
2023-05-03T10:14:15.320Z,14.00
2023-05-03T10:16:47.637Z,13.90
2023-05-03T10:19:28.714Z,13.90
2023-05-03T10:22:12.241Z,13.70
2023-05-03T10:25:02.689Z,13.50
2023-05-03T10:27:48.560Z,13.30
2023-05-03T10:30:36.434Z,13.20
2023-05-03T10:33:35.030Z,13.10
2023-05-03T10:36:06.932Z,13.30
2023-05-03T10:38:33.891Z,13.40
2023-05-03T10:41:03.704Z,13.60
2023-05-03T10:43:31.002Z,13.70
2023-05-03T10:46:11.957Z,13.80
2023-05-03T10:48:38.910Z,13.80
2023-05-03T10:51:33.228Z,13.90
2023-05-03T10:54:00.259Z,14.10
2023-05-03T10:56:27.089Z,14.20
2023-05-03T10:58:58.844Z,14.20
2023-05-03T11:01:27.989Z,14.20
2023-05-03T11:04:23.291Z,13.90
2023-05-03T11:06:52.033Z,13.70
2023-05-03T11:09:19.099Z,13.50
2023-05-03T11:11:46.137Z,13.40
2023-05-03T11:14:13.832Z,13.30
2023-05-03T11:16:47.803Z,13.20
2023-05-03T11:19:15.774Z,13.40
2023-05-03T11:21:44.396Z,13.30
2023-05-03T11:24:11.912Z,13.30
2023-05-03T11:26:39.246Z,13.20
2023-05-03T11:29:06.123Z,13.20
2023-05-03T11:31:33.193Z,13.30
2023-05-03T11:34:00.685Z,13.30
2023-05-03T11:36:28.372Z,13.20
2023-05-03T11:38:55.288Z,13.30
2023-05-03T11:41:22.271Z,13.30
2023-05-03T11:44:00.523Z,13.30
2023-05-03T11:46:38.520Z,13.40
2023-05-03T11:49:05.693Z,13.50
2023-05-03T11:51:32.596Z,13.80
2023-05-03T11:54:12.822Z,14.10
2023-05-03T11:56:50.379Z,14.40
2023-05-03T11:59:20.222Z,14.40
2023-05-03T12:01:49.501Z,14.40
2023-05-03T12:04:18.192Z,14.20
2023-05-03T12:06:52.774Z,14.30
2023-05-03T12:09:22.528Z,14.20
2023-05-03T12:11:51.977Z,13.90
2023-05-03T12:14:20.196Z,13.70
2023-05-03T12:16:52.774Z,13.80
2023-05-03T12:19:27.802Z,13.60
2023-05-03T12:22:17.747Z,13.50
2023-05-03T12:24:45.126Z,13.50
2023-05-03T12:27:14.253Z,13.60
2023-05-03T12:29:42.085Z,13.50
2023-05-03T12:34:38.852Z,13.50
2023-05-03T12:37:11.756Z,13.60
2023-05-03T12:39:40.273Z,13.70
2023-05-03T12:42:09.354Z,13.70
2023-05-03T12:44:41.823Z,13.70
2023-05-03T12:47:09.929Z,13.60
2023-05-03T12:49:39.199Z,13.40
2023-05-03T12:52:35.190Z,13.40
2023-05-03T12:54:55.764Z,13.70
2023-05-03T12:57:23.962Z,13.70
2023-05-03T12:59:55.201Z,13.90
2023-05-03T13:05:00.476Z,13.60
2023-05-03T13:07:30.589Z,13.60
2023-05-03T13:12:32.602Z,13.60
2023-05-03T13:15:01.202Z,13.60
2023-05-03T13:17:28.461Z,13.60
2023-05-03T13:19:55.478Z,13.70
2023-05-03T13:22:23.096Z,13.80
2023-05-03T13:24:50.110Z,13.80
2023-05-03T13:27:18.128Z,13.60
2023-05-03T13:29:47.554Z,13.50
2023-05-03T13:32:16.084Z,13.60
2023-05-03T13:34:43.286Z,13.80
2023-05-03T13:37:11.579Z,13.90
2023-05-03T13:39:38.717Z,13.90
2023-05-03T13:42:06.194Z,14.00
2023-05-03T13:44:33.202Z,14.10
2023-05-03T13:47:00.046Z,14.10
2023-05-03T13:49:26.965Z,14.10
2023-05-03T13:51:54.329Z,14.20
2023-05-03T13:54:21.370Z,14.20
2023-05-03T13:56:48.410Z,14.10
2023-05-03T13:59:16.434Z,14.20
2023-05-03T14:01:43.587Z,14.10
2023-05-03T14:04:10.910Z,14.10
2023-05-03T14:06:41.328Z,14.00
2023-05-03T14:09:09.713Z,13.90
2023-05-03T14:11:37.976Z,13.80
2023-05-03T14:14:04.915Z,13.70
2023-05-03T14:19:03.547Z,13.60
2023-05-03T14:21:31.763Z,13.60
2023-05-03T14:23:59.302Z,13.50
2023-05-03T14:26:26.744Z,13.50
2023-05-03T14:28:53.615Z,13.40
2023-05-03T14:31:20.577Z,13.40
2023-05-03T14:33:47.464Z,13.40
2023-05-03T14:36:14.363Z,13.50
2023-05-03T14:38:41.328Z,13.50
2023-05-03T14:41:08.195Z,13.40
2023-05-03T14:43:35.133Z,13.30
2023-05-03T14:46:02.211Z,13.20
2023-05-03T14:48:29.168Z,13.20
2023-05-03T14:50:56.575Z,13.30
2023-05-03T14:53:23.727Z,13.40
2023-05-03T14:55:50.692Z,13.40
2023-05-03T14:58:17.657Z,13.20
2023-05-03T15:00:44.730Z,13.20
2023-05-03T15:03:12.496Z,13.40
2023-05-03T15:05:47.549Z,13.40
2023-05-03T15:08:16.741Z,13.30
2023-05-03T15:10:47.833Z,13.20
2023-05-03T15:13:16.289Z,13.10
2023-05-03T15:15:44.267Z,13.00
2023-05-03T15:18:11.632Z,13.10
2023-05-03T15:20:38.853Z,13.20
2023-05-03T15:23:06.450Z,13.20
2023-05-03T15:25:33.341Z,13.30
2023-05-03T15:28:03.736Z,13.10
2023-05-03T15:30:32.700Z,13.30
2023-05-03T15:33:00.006Z,13.40
2023-05-03T15:35:27.332Z,13.40
2023-05-03T15:37:54.166Z,13.40
2023-05-03T15:40:23.725Z,13.50
2023-05-03T15:42:52.403Z,13.50
2023-05-03T15:45:19.516Z,13.40
2023-05-03T15:47:46.571Z,13.20
2023-05-03T15:50:13.896Z,13.10
2023-05-03T15:52:42.229Z,13.00
2023-05-03T15:55:09.883Z,13.10
2023-05-03T15:57:37.249Z,13.20
2023-05-03T16:00:09.358Z,13.10
2023-05-03T16:02:36.299Z,12.90
2023-05-03T16:05:03.478Z,12.80
2023-05-03T16:07:30.504Z,12.80
2023-05-03T16:09:57.553Z,13.00
2023-05-03T16:12:24.647Z,13.00
2023-05-03T16:14:51.676Z,13.00
2023-05-03T16:17:18.678Z,12.90
2023-05-03T16:19:45.547Z,12.90
2023-05-03T16:22:12.404Z,13.00
2023-05-03T16:24:39.312Z,13.20
2023-05-03T16:27:06.284Z,13.40
2023-05-03T16:29:34.996Z,13.60
2023-05-03T16:32:02.082Z,13.60
2023-05-03T16:34:29.172Z,13.80
2023-05-03T16:36:56.112Z,13.70
2023-05-03T16:39:23.081Z,13.70
2023-05-03T16:41:49.889Z,13.50
2023-05-03T16:44:19.203Z,13.40
2023-05-03T16:46:46.777Z,13.20
2023-05-03T16:49:13.624Z,13.10
2023-05-03T16:51:41.187Z,12.90
2023-05-03T16:54:08.112Z,12.70
2023-05-03T16:56:35.252Z,12.50
2023-05-03T16:59:03.726Z,12.50
2023-05-03T17:01:30.690Z,12.40
2023-05-03T17:03:57.771Z,12.40
2023-05-03T17:06:24.680Z,12.20
2023-05-03T17:08:51.579Z,12.20
2023-05-03T17:11:18.496Z,12.20
2023-05-03T17:13:45.390Z,12.20
2023-05-03T17:16:15.145Z,12.00
2023-05-03T17:18:42.382Z,12.10
2023-05-03T17:21:09.840Z,12.20
2023-05-03T17:23:38.421Z,12.30
2023-05-03T17:26:08.750Z,12.40
2023-05-03T17:28:35.884Z,12.40
2023-05-03T17:31:03.538Z,12.30
2023-05-03T17:33:30.486Z,12.20
2023-05-03T17:35:57.794Z,12.20
2023-05-03T17:38:24.659Z,12.20
2023-05-03T17:40:51.748Z,12.40
2023-05-03T17:43:18.855Z,12.40
2023-05-03T17:45:47.482Z,12.40
2023-05-03T17:48:14.634Z,12.40
2023-05-03T17:50:43.111Z,12.40
2023-05-03T17:53:10.318Z,12.30
2023-05-03T17:55:40.645Z,12.20
2023-05-03T17:58:09.430Z,12.30
2023-05-03T18:00:36.398Z,12.20
2023-05-03T18:03:03.663Z,12.20
2023-05-03T18:05:36.858Z,12.10
2023-05-03T18:08:04.130Z,12.00
2023-05-03T18:10:31.327Z,11.90
2023-05-03T18:12:58.450Z,11.90
2023-05-03T18:15:25.390Z,11.80
2023-05-03T18:17:52.965Z,11.80
2023-05-03T18:20:20.024Z,11.70
2023-05-03T18:22:47.413Z,11.50
2023-05-03T18:25:14.440Z,11.40
2023-05-03T18:27:41.618Z,11.30
2023-05-03T18:30:09.226Z,11.20
2023-05-03T18:32:36.323Z,11.10
2023-05-03T18:35:03.768Z,11.00
2023-05-03T18:37:30.802Z,10.90
2023-05-03T18:39:57.737Z,10.90
2023-05-03T18:42:24.675Z,10.80
2023-05-03T18:44:52.113Z,10.70
2023-05-03T18:47:22.163Z,10.70
2023-05-03T18:49:53.101Z,10.70
2023-05-03T18:52:20.608Z,10.80
2023-05-03T18:54:47.904Z,10.50
2023-05-03T18:57:15.410Z,10.30
2023-05-03T18:59:52.550Z,10.20
2023-05-03T19:02:30.663Z,10.00
2023-05-03T19:04:58.235Z,9.90
2023-05-03T19:07:25.246Z,9.70
2023-05-03T19:09:56.443Z,9.50
2023-05-03T19:12:23.846Z,9.30
2023-05-03T19:14:50.752Z,9.10
2023-05-03T19:17:17.599Z,8.90
2023-05-03T19:19:44.499Z,8.70
2023-05-03T19:22:11.786Z,8.60
2023-05-03T19:24:39.820Z,8.50
2023-05-03T19:27:06.791Z,8.30
2023-05-03T19:29:33.936Z,8.20
2023-05-03T19:32:00.846Z,8.10
2023-05-03T19:34:30.785Z,8.00
2023-05-03T19:36:57.660Z,8.00
2023-05-03T19:39:24.822Z,7.90
2023-05-03T19:41:53.110Z,7.80
2023-05-03T19:44:20.040Z,7.80
2023-05-03T19:46:47.003Z,7.70
2023-05-03T19:49:13.849Z,7.60
2023-05-03T19:51:40.686Z,7.50
2023-05-03T19:54:07.602Z,7.40
2023-05-03T19:56:34.660Z,7.30
2023-05-03T19:59:01.540Z,7.30
2023-05-03T20:01:29.254Z,7.30
2023-05-03T20:03:56.594Z,7.10
2023-05-03T20:06:23.905Z,7.10
2023-05-03T20:08:51.253Z,7.00
2023-05-03T20:11:19.853Z,6.90
2023-05-03T20:13:47.153Z,6.80
2023-05-03T20:16:14.219Z,6.80
2023-05-03T20:18:42.621Z,6.70
2023-05-03T20:21:09.644Z,6.70
2023-05-03T20:23:36.507Z,6.60
2023-05-03T20:26:03.475Z,6.60
2023-05-03T20:28:32.510Z,6.50
2023-05-03T20:30:59.566Z,6.50
2023-05-03T20:33:26.460Z,6.40
2023-05-03T20:35:53.468Z,6.40
2023-05-03T20:38:20.437Z,6.30
2023-05-03T20:40:47.250Z,6.30
2023-05-03T20:43:14.156Z,6.30
2023-05-03T20:45:41.223Z,6.20
2023-05-03T20:48:08.978Z,6.20
2023-05-03T20:50:36.007Z,6.30
2023-05-03T20:53:03.469Z,6.20
2023-05-03T20:55:30.440Z,6.20
2023-05-03T20:57:57.333Z,6.10
2023-05-03T21:00:24.705Z,6.10
2023-05-03T21:02:53.897Z,6.00
2023-05-03T21:05:21.865Z,5.90
2023-05-03T21:07:49.222Z,5.90
2023-05-03T21:10:16.148Z,5.90
2023-05-03T21:12:43.120Z,5.90
2023-05-03T21:15:10.864Z,5.80
2023-05-03T21:17:37.915Z,5.80
2023-05-03T21:20:05.929Z,5.80
2023-05-03T21:22:32.948Z,5.70
2023-05-03T21:24:59.905Z,5.60
2023-05-03T21:27:26.838Z,5.70
2023-05-03T21:29:53.692Z,5.60
2023-05-03T21:32:20.549Z,5.60
2023-05-03T21:34:47.424Z,5.50
2023-05-03T21:37:14.248Z,5.40
2023-05-03T21:39:41.145Z,5.30
2023-05-03T21:42:07.973Z,5.40
2023-05-03T21:44:35.143Z,5.30
2023-05-03T21:47:02.934Z,5.30
2023-05-03T21:49:29.920Z,5.20
2023-05-03T21:51:56.904Z,5.20
2023-05-03T21:54:23.827Z,5.10
2023-05-03T21:56:50.871Z,5.10
2023-05-03T21:59:17.789Z,5.10
2023-05-03T22:01:45.079Z,5.10
2023-05-03T22:04:11.994Z,5.10
2023-05-03T22:06:39.149Z,5.00
2023-05-03T22:09:06.978Z,5.00
2023-05-03T22:11:33.825Z,5.00
2023-05-03T22:14:07.946Z,4.90
2023-05-03T22:16:37.708Z,4.90
2023-05-03T22:19:05.345Z,4.90
2023-05-03T22:21:32.622Z,4.80
2023-05-03T22:23:59.578Z,4.80
2023-05-03T22:26:26.793Z,4.70
2023-05-03T22:28:54.068Z,4.70
2023-05-03T22:31:21.149Z,4.70
2023-05-03T22:33:49.003Z,4.70
2023-05-03T22:36:16.145Z,4.60
2023-05-03T22:38:43.410Z,4.70
2023-05-03T22:41:10.600Z,4.60
2023-05-03T22:43:37.685Z,4.60
2023-05-03T22:46:06.181Z,4.60
2023-05-03T22:48:34.098Z,4.60
2023-05-03T22:51:01.205Z,4.60
2023-05-03T22:53:28.225Z,4.60
2023-05-03T22:56:01.318Z,4.50
2023-05-03T22:58:28.784Z,4.40
2023-05-03T23:00:55.944Z,4.40
2023-05-03T23:03:23.311Z,4.40
2023-05-03T23:05:52.927Z,4.30
2023-05-03T23:08:20.749Z,4.40
2023-05-03T23:10:47.656Z,4.30
2023-05-03T23:13:14.602Z,4.20
2023-05-03T23:15:41.602Z,4.30
2023-05-03T23:18:08.783Z,4.20
2023-05-03T23:20:35.768Z,4.20
2023-05-03T23:23:02.667Z,4.20
2023-05-03T23:25:29.790Z,4.10
2023-05-03T23:27:56.682Z,4.10
2023-05-03T23:30:24.459Z,4.10
2023-05-03T23:32:52.566Z,4.10
2023-05-03T23:35:21.302Z,4.00
2023-05-03T23:37:48.208Z,4.10
2023-05-03T23:40:15.205Z,4.10
2023-05-03T23:42:43.402Z,4.00
2023-05-03T23:45:10.841Z,4.00
2023-05-03T23:47:37.871Z,3.90
2023-05-03T23:50:05.649Z,3.90
2023-05-03T23:52:32.836Z,3.90
2023-05-03T23:54:59.688Z,3.90
2023-05-03T23:57:26.903Z,3.80
2023-05-03T23:59:53.950Z,3.90
